createdAt,value
2023-09-19T00:00:57.506Z,16.64
2023-09-19T00:05:59.704Z,16.44
2023-09-19T00:11:07.027Z,16.45
2023-09-19T00:16:13.217Z,16.52
2023-09-19T00:21:16.395Z,16.79
2023-09-19T00:26:19.711Z,16.82
2023-09-19T00:31:24.467Z,16.54
2023-09-19T00:36:26.330Z,16.47
2023-09-19T00:41:31.264Z,16.29
2023-09-19T00:46:33.860Z,16.24
2023-09-19T00:51:36.847Z,16.23
2023-09-19T00:56:41.419Z,16.67
2023-09-19T01:01:47.078Z,16.72
2023-09-19T01:06:53.907Z,16.49
2023-09-19T01:12:03.907Z,16.20
2023-09-19T01:17:25.435Z,16.08
2023-09-19T01:22:52.839Z,16.03
2023-09-19T01:28:39.214Z,16.09
2023-09-19T01:34:05.285Z,16.07
2023-09-19T01:39:11.769Z,16.64
2023-09-19T01:44:19.012Z,16.60
2023-09-19T01:50:06.835Z,16.21
2023-09-19T01:55:11.545Z,16.15
2023-09-19T02:00:18.668Z,16.03
2023-09-19T02:05:25.512Z,16.20
2023-09-19T02:10:27.606Z,16.26
2023-09-19T02:15:29.274Z,16.20
2023-09-19T02:20:31.612Z,16.20
2023-09-19T02:25:33.456Z,16.22
2023-09-19T02:30:37.292Z,16.20
2023-09-19T02:35:39.132Z,16.37
2023-09-19T02:40:41.080Z,16.46
2023-09-19T02:45:43.059Z,16.52
2023-09-19T02:50:45.367Z,16.58
2023-09-19T02:55:48.486Z,16.53
2023-09-19T03:00:52.502Z,16.56
2023-09-19T03:05:55.675Z,16.68
2023-09-19T03:10:58.142Z,17.04
2023-09-19T03:15:59.862Z,17.18
2023-09-19T03:21:03.748Z,17.06
2023-09-19T03:26:06.740Z,17.05
2023-09-19T03:31:09.361Z,17.29
2023-09-19T03:36:14.450Z,17.31
2023-09-19T03:41:18.480Z,17.40
2023-09-19T03:46:21.525Z,17.45
2023-09-19T03:51:24.384Z,17.53
2023-09-19T03:56:26.429Z,17.48
2023-09-19T04:01:29.300Z,17.36
2023-09-19T04:06:31.092Z,17.48
2023-09-19T04:11:34.558Z,17.58
2023-09-19T04:16:36.762Z,17.58
2023-09-19T04:21:39.060Z,17.61
2023-09-19T04:26:40.770Z,17.58
2023-09-19T04:31:45.370Z,17.54
2023-09-19T04:36:47.120Z,17.38
2023-09-19T04:41:49.273Z,17.49
2023-09-19T04:46:52.066Z,17.29
2023-09-19T04:51:54.773Z,17.42
2023-09-19T04:56:56.857Z,17.52
2023-09-19T05:01:58.609Z,17.54
2023-09-19T05:07:02.181Z,17.52
2023-09-19T05:12:04.441Z,17.48
2023-09-19T05:17:06.390Z,17.44
2023-09-19T05:22:08.214Z,17.55
2023-09-19T05:27:09.906Z,17.62
2023-09-19T05:32:14.757Z,17.50
2023-09-19T05:37:17.451Z,17.54
2023-09-19T05:42:19.178Z,17.46
2023-09-19T05:47:21.446Z,17.62
2023-09-19T05:52:23.522Z,17.57
2023-09-19T05:57:25.966Z,17.63
2023-09-19T06:02:30.270Z,17.55
2023-09-19T06:07:37.488Z,17.68
2023-09-19T06:12:45.544Z,17.65
2023-09-19T06:17:51.899Z,17.69
2023-09-19T06:22:54.165Z,17.78
2023-09-19T06:27:57.154Z,17.81
2023-09-19T06:33:00.759Z,17.88
2023-09-19T06:38:06.957Z,17.84
2023-09-19T06:43:09.730Z,17.93
2023-09-19T06:48:11.602Z,18.14
2023-09-19T06:53:13.464Z,18.25
2023-09-19T06:58:17.873Z,18.34
2023-09-19T07:03:22.502Z,18.54
2023-09-19T07:08:24.224Z,18.78
2023-09-19T07:13:26.520Z,18.75
2023-09-19T07:18:28.460Z,18.75
2023-09-19T07:23:31.038Z,18.87
2023-09-19T07:28:34.035Z,19.01
2023-09-19T07:33:35.762Z,19.31
2023-09-19T07:38:37.493Z,19.24
2023-09-19T07:43:42.164Z,19.28
2023-09-19T07:48:48.881Z,19.19
2023-09-19T07:53:50.600Z,19.20
2023-09-19T07:58:53.119Z,19.51
2023-09-19T08:03:54.874Z,19.24
2023-09-19T08:08:57.964Z,19.18
2023-09-19T08:14:00.244Z,19.37
2023-09-19T08:19:02.017Z,19.62
2023-09-19T08:24:05.239Z,19.62
2023-09-19T08:29:11.373Z,19.67
2023-09-19T08:34:13.245Z,19.72
2023-09-19T08:39:15.308Z,19.74
2023-09-19T08:44:17.983Z,20.01
2023-09-19T08:49:31.601Z,20.32
2023-09-19T08:54:41.950Z,20.22
2023-09-19T08:59:46.106Z,20.10
2023-09-19T09:04:51.322Z,20.30
2023-09-19T09:09:53.177Z,20.24
2023-09-19T09:14:54.920Z,20.65
2023-09-19T09:19:56.873Z,20.69
2023-09-19T09:24:59.525Z,20.94
2023-09-19T09:30:01.284Z,21.05
2023-09-19T09:35:10.680Z,20.88
2023-09-19T09:40:15.301Z,20.54
2023-09-19T09:45:38.199Z,20.89
2023-09-19T09:50:48.101Z,21.50
2023-09-19T09:56:07.281Z,22.02
2023-09-19T10:01:15.981Z,22.12
2023-09-19T10:06:24.782Z,22.27
2023-09-19T10:11:31.604Z,22.21
2023-09-19T10:16:35.410Z,22.41
2023-09-19T10:21:40.878Z,22.63
2023-09-19T10:26:44.616Z,22.81
2023-09-19T10:31:49.138Z,22.77
2023-09-19T10:36:52.630Z,23.25
2023-09-19T10:42:00.323Z,23.20
2023-09-19T10:47:04.236Z,23.35
2023-09-19T10:52:09.256Z,23.38
2023-09-19T10:57:11.461Z,23.28
2023-09-19T11:02:19.506Z,23.66
2023-09-19T11:07:21.675Z,23.86
2023-09-19T11:12:32.448Z,23.98
2023-09-19T11:17:48.101Z,24.29
2023-09-19T11:23:07.765Z,24.00
2023-09-19T11:28:19.258Z,24.26
2023-09-19T11:33:29.438Z,23.28
2023-09-19T11:38:43.483Z,23.06
2023-09-19T11:43:45.335Z,22.70
2023-09-19T11:48:50.603Z,22.66
2023-09-19T11:53:53.410Z,22.80
2023-09-19T11:58:57.420Z,23.01
2023-09-19T12:04:03.300Z,23.02
2023-09-19T12:09:08.400Z,22.81
2023-09-19T12:14:10.712Z,22.52
2023-09-19T12:19:24.485Z,22.43
2023-09-19T12:24:31.043Z,22.46
2023-09-19T12:29:43.194Z,22.64
2023-09-19T12:34:54.090Z,22.41
2023-09-19T12:40:16.194Z,22.46
2023-09-19T12:45:19.571Z,22.44
2023-09-19T12:50:30.445Z,22.47
2023-09-19T12:55:37.897Z,22.51
2023-09-19T13:00:45.731Z,22.40
2023-09-19T13:06:01.898Z,22.52
2023-09-19T13:11:07.870Z,22.49
2023-09-19T13:16:10.194Z,22.87
2023-09-19T13:21:16.528Z,22.93
2023-09-19T13:26:19.428Z,22.65
2023-09-19T13:31:21.731Z,22.47
2023-09-19T13:36:23.519Z,22.37
2023-09-19T13:41:25.790Z,22.18
2023-09-19T13:46:28.799Z,22.29
2023-09-19T13:51:32.460Z,22.51
2023-09-19T13:56:34.799Z,22.52
2023-09-19T14:01:36.630Z,22.41
2023-09-19T14:06:38.667Z,22.28
2023-09-19T14:11:41.178Z,22.37
2023-09-19T14:16:43.236Z,22.24
2023-09-19T14:21:45.199Z,22.34
2023-09-19T14:26:47.346Z,22.28
2023-09-19T14:31:49.213Z,22.17
2023-09-19T14:36:51.054Z,22.58
2023-09-19T14:41:52.944Z,22.65
2023-09-19T14:46:56.005Z,22.65
2023-09-19T14:51:57.931Z,22.39
2023-09-19T14:57:05.443Z,22.60
2023-09-19T15:02:08.388Z,22.46
2023-09-19T15:07:10.374Z,22.36
2023-09-19T15:12:15.476Z,22.34
2023-09-19T15:17:17.946Z,22.10
2023-09-19T15:22:21.095Z,22.00
2023-09-19T15:27:22.923Z,22.00
2023-09-19T15:32:25.153Z,21.75
2023-09-19T15:37:27.664Z,22.08
2023-09-19T15:42:29.428Z,21.85
2023-09-19T15:47:32.093Z,21.89
2023-09-19T15:52:33.971Z,21.95
2023-09-19T15:57:38.024Z,21.92
2023-09-19T16:02:39.980Z,21.86
2023-09-19T16:07:42.157Z,21.70
2023-09-19T16:12:43.953Z,21.69
2023-09-19T16:17:46.295Z,21.54
2023-09-19T16:22:48.116Z,21.50
2023-09-19T16:27:49.814Z,21.28
2023-09-19T16:32:52.080Z,21.08
2023-09-19T16:37:53.928Z,21.12
2023-09-19T16:42:55.667Z,21.00
2023-09-19T16:47:57.491Z,20.86
2023-09-19T16:52:59.327Z,20.55
2023-09-19T16:58:01.117Z,20.46
2023-09-19T17:03:04.765Z,20.37
2023-09-19T17:08:09.766Z,20.09
2023-09-19T17:13:12.241Z,20.13
2023-09-19T17:18:14.146Z,19.98
2023-09-19T17:23:15.920Z,19.82
2023-09-19T17:28:17.707Z,19.55
2023-09-19T17:33:19.442Z,19.43
2023-09-19T17:38:21.317Z,19.46
2023-09-19T17:43:23.173Z,19.28
2023-09-19T17:48:24.936Z,19.26
2023-09-19T17:53:26.729Z,18.93
2023-09-19T17:58:29.391Z,18.45
2023-09-19T18:03:32.815Z,18.16
2023-09-19T18:08:35.215Z,17.75
2023-09-19T18:13:36.926Z,17.52
2023-09-19T18:18:38.964Z,17.39
2023-09-19T18:23:40.743Z,17.26
2023-09-19T18:28:44.957Z,17.11
2023-09-19T18:33:51.231Z,16.98
2023-09-19T18:38:54.083Z,16.96
2023-09-19T18:43:57.284Z,16.87
2023-09-19T18:48:59.089Z,16.69
2023-09-19T18:54:12.622Z,16.57
2023-09-19T18:59:16.727Z,16.53
2023-09-19T19:04:19.749Z,16.37
2023-09-19T19:09:21.921Z,16.15
2023-09-19T19:14:23.887Z,16.12
2023-09-19T19:19:26.975Z,16.05
2023-09-19T19:24:30.037Z,15.96
2023-09-19T19:29:31.796Z,15.74
2023-09-19T19:34:34.384Z,15.72
2023-09-19T19:39:36.094Z,15.56
2023-09-19T19:44:37.779Z,15.43
2023-09-19T19:49:39.927Z,15.36
2023-09-19T19:54:41.873Z,15.29
2023-09-19T19:59:43.814Z,15.22
2023-09-19T20:04:45.627Z,15.22
2023-09-19T20:09:47.548Z,15.29
2023-09-19T20:14:49.286Z,15.26
2023-09-19T20:19:54.585Z,15.14
2023-09-19T20:24:56.637Z,15.39
2023-09-19T20:29:58.385Z,15.02
2023-09-19T20:35:01.009Z,15.16
2023-09-19T20:40:03.026Z,14.99
2023-09-19T20:45:06.523Z,14.81
2023-09-19T20:50:08.733Z,14.78
2023-09-19T20:55:11.093Z,14.83
2023-09-19T21:00:14.619Z,14.74
2023-09-19T21:05:18.207Z,14.54
2023-09-19T21:10:19.965Z,14.39
2023-09-19T21:15:21.614Z,14.34
2023-09-19T21:20:27.415Z,14.28
2023-09-19T21:25:29.709Z,14.19
2023-09-19T21:30:31.612Z,14.19
2023-09-19T21:35:34.153Z,14.20
2023-09-19T21:40:35.938Z,14.12
2023-09-19T21:45:37.683Z,14.24
2023-09-19T21:50:39.474Z,14.29
2023-09-19T21:55:41.220Z,14.35
2023-09-19T22:00:50.590Z,13.94
2023-09-19T22:05:52.987Z,13.87
2023-09-19T22:10:54.698Z,13.97
2023-09-19T22:15:59.838Z,13.77
2023-09-19T22:21:08.519Z,13.70
2023-09-19T22:26:21.420Z,13.80
2023-09-19T22:31:27.446Z,13.75
2023-09-19T22:36:33.711Z,13.51
2023-09-19T22:41:36.135Z,13.58
2023-09-19T22:46:38.182Z,13.46
2023-09-19T22:51:47.670Z,13.52
2023-09-19T22:56:52.803Z,13.35
2023-09-19T23:01:54.716Z,13.63
2023-09-19T23:07:01.284Z,13.59
2023-09-19T23:12:17.906Z,13.49
2023-09-19T23:17:23.646Z,13.54
2023-09-19T23:22:28.826Z,13.39
2023-09-19T23:27:35.189Z,13.01
2023-09-19T23:32:38.852Z,13.09
2023-09-19T23:37:41.227Z,13.01
2023-09-19T23:42:43.684Z,13.19
2023-09-19T23:47:46.972Z,13.15
2023-09-19T23:52:49.489Z,13.02
2023-09-19T23:57:51.274Z,13.12
